Time;durP1;ratioP1;P1;durP2;ratioP2;P2;SDS_P1;SDS_P2;PMS_P1;PMS_P2;Temp;Humidity;BMP_temperature;BMP_pressure;BME280_temperature;BME280_humidity;BME280_pressure;Samples;Min_cycle;Max_cycle;Signal;HPM_P1;HPM_P2
2022/05/16 00:00:27;;;;;;;23.27;7.20;;;;;;;-144.47;45.09;53211.63;4988570;28;20030;-63
2022/05/16 00:02:54;;;;;;;26.55;6.70;;;;;;;-144.47;45.14;53209.66;4987113;28;20501;-64
2022/05/16 00:05:19;;;;;;;21.25;5.95;;;;;;;-144.47;45.14;53191.78;4993265;28;20038;-63
2022/05/16 00:07:45;;;;;;;18.10;6.57;;;;;;;-144.47;45.20;53183.81;4992297;28;20041;-63
2022/05/16 00:10:11;;;;;;;23.27;7.05;;;;;;;-144.47;45.37;53205.66;4996219;28;20034;-63
2022/05/16 00:12:41;;;;;;;24.40;6.30;;;;;;;-144.47;45.24;53171.91;5047598;22;20061;-88
2022/05/16 00:15:09;;;;;;;27.35;13.52;;;;;;;-144.47;45.46;53142.09;5014543;28;20478;-87
2022/05/16 00:17:34;;;;;;;23.42;6.30;;;;;;;-144.47;45.61;53203.69;5014940;28;20109;-87
2022/05/16 00:20:33;;;;;;;23.08;6.20;;;;;;;-144.47;45.48;53201.69;5018411;28;20083;-87
2022/05/16 00:23:02;;;;;;;16.20;5.28;;;;;;;-144.47;45.41;53209.66;5034681;28;20100;-87
2022/05/16 00:25:31;;;;;;;24.48;5.55;;;;;;;-144.47;45.69;53193.75;5027755;28;20041;-90
2022/05/16 00:28:01;;;;;;;19.27;6.27;;;;;;;-144.47;45.71;53185.81;5016531;28;20042;-87
2022/05/16 00:30:27;;;;;;;31.70;5.70;;;;;;;-144.47;45.68;53205.66;5013740;28;20267;-87
2022/05/16 00:33:02;;;;;;;17.05;5.32;;;;;;;-144.47;45.83;53179.84;5015429;28;20083;-88
2022/05/16 00:35:28;;;;;;;19.65;5.55;;;;;;;-144.47;45.80;53193.75;5015709;28;20076;-86
2022/05/16 00:37:54;;;;;;;25.00;6.35;;;;;;;-144.47;46.02;53221.56;5017100;28;20029;-89
2022/05/16 00:40:37;;;;;;;22.05;5.25;;;;;;;-144.47;45.92;53211.63;5038801;28;20022;-87
2022/05/16 00:43:06;;;;;;;17.05;5.38;;;;;;;-144.47;46.02;53211.63;5035611;28;20492;-89
2022/05/16 00:45:31;;;;;;;20.92;6.20;;;;;;;-144.47;46.13;53215.59;5033636;28;20033;-88
2022/05/16 00:47:58;;;;;;;28.40;5.93;;;;;;;-144.47;46.22;53185.81;5042682;28;20049;-88
2022/05/16 00:50:25;;;;;;;21.50;5.78;;;;;;;-144.47;46.24;53181.84;5053846;28;20052;-88
2022/05/16 00:52:53;;;;;;;17.98;5.90;;;;;;;-144.47;46.45;53225.53;5053911;28;20009;-85
2022/05/16 00:55:22;;;;;;;21.23;6.13;;;;;;;-144.47;46.56;53233.47;5054461;28;20108;-87
2022/05/16 00:57:55;;;;;;;22.90;6.15;;;;;;;-144.47;46.79;53189.78;5043725;28;20041;-84
2022/05/16 01:00:26;;;;;;;14.52;5.13;;;;;;;-144.47;46.70;53233.47;5055908;28;20082;-87
2022/05/16 01:05:43;;;;;;;20.65;5.63;;;;;;;-144.47;46.82;53223.56;5055625;28;20036;-88
2022/05/16 01:08:14;;;;;;;21.92;6.43;;;;;;;-144.47;46.85;53209.66;5054239;28;20078;-87
2022/05/16 01:11:17;;;;;;;22.90;6.05;;;;;;;-144.47;47.08;53203.69;5054645;28;20432;-88
2022/05/16 01:13:42;;;;;;;30.35;6.97;;;;;;;-144.47;47.03;53223.56;5053531;28;20040;-86
2022/05/16 01:16:08;;;;;;;23.17;6.80;;;;;;;-144.47;47.07;53217.59;5054585;28;20029;-87
2022/05/16 01:18:37;;;;;;;26.15;6.13;;;;;;;-144.47;47.17;53199.72;5054471;28;20051;-88
2022/05/16 01:21:28;;;;;;;28.17;6.25;;;;;;;-144.47;47.29;53189.78;5054395;28;20104;-86
2022/05/16 01:24:07;;;;;;;21.80;7.20;;;;;;;-144.47;47.32;53217.59;5054144;28;20100;-86
2022/05/16 01:26:36;;;;;;;18.15;5.93;;;;;;;-144.47;47.09;53249.38;5061799;28;20108;-87
2022/05/16 01:29:03;;;;;;;16.75;6.28;;;;;;;-144.47;47.05;53235.47;5060922;28;20092;-86
2022/05/16 01:31:31;;;;;;;17.58;6.40;;;;;;;-144.47;47.14;53205.66;5057691;28;20029;-88
2022/05/16 01:33:56;;;;;;;14.15;5.07;;;;;;;-144.47;47.00;53207.66;5063232;28;20033;-87
2022/05/16 01:36:22;;;;;;;20.40;5.15;;;;;;;-144.47;46.97;53211.63;5065648;28;20031;-87
2022/05/16 01:38:48;;;;;;;19.23;5.80;;;;;;;-144.47;46.87;53193.75;5065648;28;20033;-86
2022/05/16 01:41:23;;;;;;;18.55;5.28;;;;;;;-144.47;46.75;53197.72;5067155;28;20025;-86
2022/05/16 01:43:51;;;;;;;14.68;4.78;;;;;;;-144.47;46.68;53259.31;5050960;28;20132;-87
2022/05/16 01:46:22;;;;;;;18.85;6.50;;;;;;;-144.47;46.71;53225.53;5062425;28;20098;-87
2022/05/16 01:48:48;;;;;;;21.08;5.63;;;;;;;-144.47;46.67;53225.53;5067823;28;20036;-85
2022/05/16 01:51:13;;;;;;;19.92;5.57;;;;;;;-144.47;46.71;53201.69;5073161;28;20085;-84
2022/05/16 01:53:44;;;;;;;16.42;6.00;;;;;;;-144.47;46.84;53225.53;5075508;28;20029;-87
2022/05/16 01:56:10;;;;;;;16.73;5.80;;;;;;;-144.47;46.81;53217.59;5074704;28;20086;-88
2022/05/16 01:58:36;;;;;;;25.02;6.05;;;;;;;-144.47;46.79;53201.69;5073534;28;20045;-84
2022/05/16 02:01:05;;;;;;;14.55;5.88;;;;;;;-144.47;46.93;53211.63;5074110;28;20080;-85
2022/05/16 02:03:30;;;;;;;17.65;5.65;;;;;;;-144.47;47.14;53241.44;5058184;28;20036;-84
2022/05/16 02:05:57;;;;;;;27.10;5.30;;;;;;;-144.47;47.18;53219.56;5074151;28;20021;-83
2022/05/16 02:08:23;;;;;;;19.75;5.18;;;;;;;-144.47;47.12;53229.50;5075231;28;20034;-86
2022/05/16 02:10:48;;;;;;;12.82;4.70;;;;;;;-144.47;47.02;53199.72;5073263;28;20131;-85
2022/05/16 02:13:15;;;;;;;21.98;5.10;;;;;;;-144.47;47.00;53207.66;5074691;28;20067;-83
2022/05/16 02:15:43;;;;;;;19.45;5.13;;;;;;;-144.47;47.19;53229.50;5075289;28;20032;-84
2022/05/16 02:18:09;;;;;;;21.25;5.25;;;;;;;-144.47;47.11;53181.84;5059306;28;20064;-83
2022/05/16 02:20:36;;;;;;;18.48;5.10;;;;;;;-144.47;47.27;53239.44;5057739;28;20056;-84
2022/05/16 02:25:52;;;;;;;15.57;4.93;;;;;;;-144.47;47.14;53197.72;5045158;28;20489;-87
2022/05/16 02:28:20;;;;;;;28.08;6.10;;;;;;;-144.47;47.32;53219.56;5031573;28;20090;-85
2022/05/16 02:30:48;;;;;;;16.55;4.88;;;;;;;-144.47;47.14;53213.63;5038510;28;20048;-86
2022/05/16 02:33:15;;;;;;;;;;;;;;;-144.47;47.23;53213.63;5041454;28;20083;-85
2022/05/16 02:35:41;;;;;;;22.13;4.93;;;;;;;-144.47;47.19;53173.88;5056256;28;19916;-84
2022/05/16 02:38:12;;;;;;;13.35;4.05;;;;;;;-144.47;47.37;53241.44;5058260;28;20033;-84
2022/05/16 02:40:38;;;;;;;18.00;4.70;;;;;;;-144.47;47.36;53185.81;5057343;28;20053;-87
2022/05/16 02:43:09;;;;;;;19.33;4.13;;;;;;;-144.47;47.53;53187.78;5057152;28;20092;-86
2022/05/16 02:45:35;;;;;;;15.05;4.80;;;;;;;-144.47;47.52;53235.47;5057641;28;20146;-88
2022/05/16 02:48:02;;;;;;;13.23;4.80;;;;;;;-144.47;47.47;53195.75;5057473;28;20029;-88
2022/05/16 02:50:28;;;;;;;19.88;4.63;;;;;;;-144.47;47.49;53225.53;5057416;28;20093;-87
2022/05/16 02:52:54;;;;;;;12.35;4.60;;;;;;;-144.47;47.57;53221.56;5058377;28;20022;-87
2022/05/16 02:55:22;;;;;;;14.38;4.80;;;;;;;-144.47;47.52;53207.66;5058287;28;20031;-86
2022/05/16 02:57:53;;;;;;;20.52;5.07;;;;;;;-144.47;47.66;53215.59;5058371;28;20033;-86
2022/05/16 03:00:22;;;;;;;22.85;4.30;;;;;;;-144.47;47.39;53225.53;5046763;28;20092;-87
2022/05/16 03:02:50;;;;;;;17.83;4.70;;;;;;;-144.47;47.53;53217.59;5052003;28;20089;-87
2022/05/16 03:05:16;;;;;;;9.82;4.07;;;;;;;-144.47;47.61;53207.66;5063956;28;20096;-87
2022/05/16 03:07:42;;;;;;;13.93;4.65;;;;;;;-144.47;47.79;53185.81;5075694;28;20036;-89
2022/05/16 03:10:15;;;;;;;24.38;5.43;;;;;;;-144.47;47.72;53205.66;5064488;28;20108;-87
2022/05/16 03:12:43;;;;;;;15.88;5.03;;;;;;;-144.47;47.61;53237.44;5044833;28;20026;-88
2022/05/16 03:15:08;;;;;;;20.33;4.57;;;;;;;-144.47;47.59;53261.28;5051431;28;20029;-88
2022/05/16 03:17:38;;;;;;;13.30;4.38;;;;;;;-144.47;47.83;53241.44;5049175;28;20025;-88
2022/05/16 03:20:12;;;;;;;11.32;5.20;;;;;;;-144.47;47.64;53227.53;5056796;28;20032;-87
2022/05/16 03:22:38;;;;;;;14.27;4.35;;;;;;;-144.47;47.69;53229.50;5056773;28;20026;-88
2022/05/16 03:25:14;;;;;;;19.67;6.18;;;;;;;-144.47;47.77;53207.66;5054793;28;20068;-87
2022/05/16 03:27:45;;;;;;;16.58;5.10;;;;;;;-144.47;47.88;53229.50;5054425;28;20036;-88
2022/05/16 03:30:11;;;;;;;14.30;4.13;;;;;;;-144.47;48.04;53221.56;5057725;28;20024;-88
2022/05/16 03:32:37;;;;;;;14.48;4.57;;;;;;;-144.47;48.22;53223.56;5045956;28;20052;-87
2022/05/16 03:35:19;;;;;;;;;;;;;;;;;;;;;
2022/05/16 03:37:47;;;;;;;13.00;4.50;;;;;;;-144.47;48.36;53217.59;5056897;28;20116;-88
2022/05/16 03:42:56;;;;;;;17.27;4.82;;;;;;;-144.47;48.33;53237.44;5038085;28;20674;-87
2022/05/16 03:45:22;;;;;;;18.15;4.93;;;;;;;-144.47;48.39;53213.63;5036350;28;20394;-89
2022/05/16 03:47:49;;;;;;;27.30;4.97;;;;;;;-144.47;49.08;53201.69;5038293;28;20465;-87
2022/05/16 03:50:15;;;;;;;21.80;5.28;;;;;;;-144.47;49.03;53217.59;5051326;28;20059;-88
2022/05/16 03:52:41;;;;;;;24.88;5.32;;;;;;;-144.47;49.10;53217.59;5056426;28;20021;-87
2022/05/16 03:55:13;;;;;;;16.90;4.32;;;;;;;-144.47;48.98;53269.22;5055605;28;20032;-89
2022/05/16 03:57:56;;;;;;;15.13;4.75;;;;;;;-144.47;49.23;53249.38;5025539;28;20069;-88
2022/05/16 04:00:25;;;;;;;22.48;4.95;;;;;;;-144.47;49.30;53209.66;5047175;28;20032;-87
2022/05/16 04:02:51;;;;;;;27.47;5.63;;;;;;;-144.47;49.53;53229.50;5042855;28;20025;-86
2022/05/16 04:05:24;;;;;;;17.98;4.78;;;;;;;-144.47;49.56;53179.84;5038930;28;20635;-88
2022/05/16 04:07:52;;;;;;;23.92;5.88;;;;;;;-144.47;49.60;53219.56;5056622;28;20093;-88
2022/05/16 04:10:20;;;;;;;19.75;5.28;;;;;;;-144.47;49.61;53213.63;5024522;28;20120;-87
2022/05/16 04:12:48;;;;;;;20.17;5.05;;;;;;;-144.47;49.79;53213.63;5035659;28;20029;-89
2022/05/16 04:15:14;;;;;;;16.50;4.95;;;;;;;-144.47;49.99;53211.63;5023384;28;20029;-88
2022/05/16 04:17:41;;;;;;;18.23;6.45;;;;;;;-144.47;50.03;53201.69;5035220;28;20097;-88
2022/05/16 04:20:07;;;;;;;23.50;5.85;;;;;;;-144.47;49.87;53195.75;5036515;28;20061;-87
2022/05/16 04:22:35;;;;;;;11.77;4.90;;;;;;;-144.47;49.97;53229.50;5034375;28;20018;-89
2022/05/16 04:25:02;;;;;;;18.17;5.00;;;;;;;-144.47;49.70;53221.56;5033921;28;20113;-87
2022/05/16 04:27:28;;;;;;;15.95;5.38;;;;;;;-144.47;49.94;53209.66;5040698;28;20036;-88
2022/05/16 04:29:58;;;;;;;29.02;5.72;;;;;;;-144.47;50.03;53221.56;5056571;28;20025;-89
2022/05/16 04:32:26;;;;;;;14.65;5.25;;;;;;;-144.47;49.92;53217.59;5056156;28;20044;-88
2022/05/16 04:34:55;;;;;;;17.10;5.20;;;;;;;-144.47;49.63;53229.50;5033464;28;20021;-88
2022/05/16 04:37:22;;;;;;;17.90;5.15;;;;;;;-144.47;49.87;53237.44;5017210;28;20053;-88
2022/05/16 04:39:47;;;;;;;18.90;4.65;;;;;;;-144.47;49.63;53249.38;5020190;28;20026;-87
2022/05/16 04:45:00;;;;;;;41.88;6.65;;;;;;;-144.47;49.46;53225.53;5037552;28;20036;-87
2022/05/16 04:47:36;;;;;;;36.08;5.78;;;;;;;-144.47;49.35;53233.47;5024488;28;20036;-88
2022/05/16 04:50:09;;;;;;;26.70;5.78;;;;;;;-144.47;49.25;53249.38;5040159;28;20134;-88
2022/05/16 04:52:37;;;;;;;24.65;5.75;;;;;;;-144.47;49.11;53229.50;5051877;28;20021;-90
2022/05/16 04:55:16;;;;;;;24.08;6.15;;;;;;;-144.47;49.23;53211.63;5055604;28;20025;-88
2022/05/16 04:57:45;;;;;;;42.13;6.65;;;;;;;-144.47;49.12;53209.66;5055053;28;20025;-87
2022/05/16 05:00:14;;;;;;;;;;;;;;;-144.47;48.99;53227.53;5054125;28;20431;-90
2022/05/16 05:03:00;;;;;;;;;;;;;;;;;;;;;
2022/05/16 05:05:28;;;;;;;39.15;7.05;;;;;;;-144.47;48.71;53227.53;5057965;28;20068;-90
2022/05/16 05:08:01;;;;;;;108.57;11.35;;;;;;;-144.47;48.56;53197.72;5059717;28;20036;-87
2022/05/16 05:16:29;;;;;;;38.72;7.53;;;;;;;-144.47;48.34;53235.47;5026672;28;20069;-89
2022/05/16 05:18:59;;;;;;;42.90;8.10;;;;;;;-144.47;48.20;53209.66;5017567;28;20030;-89
2022/05/16 05:21:29;;;;;;;30.25;5.35;;;;;;;-144.47;47.60;53189.78;5016714;28;20045;-90
2022/05/16 05:24:07;;;;;;;33.55;6.10;;;;;;;-144.47;47.20;53217.59;5021041;28;20085;-89
2022/05/16 05:26:47;;;;;;;34.95;6.93;;;;;;;-144.47;46.97;53219.56;5019153;28;20117;-90
2022/05/16 05:29:16;;;;;;;16.42;5.60;;;;;;;-144.47;46.96;53209.66;5019185;28;20022;-87
2022/05/16 05:31:47;;;;;;;27.80;5.88;;;;;;;-144.47;46.59;53197.72;5023354;28;20123;-89
2022/05/16 05:34:40;;;;;;;53.38;10.05;;;;;;;-144.47;46.16;53201.69;5023976;28;20026;-85
2022/05/16 05:37:57;;;;;;;;;;;;;;;;;;;;;
2022/05/16 05:41:01;;;;;;;28.83;6.80;;;;;;;-144.47;45.59;53175.88;5017726;28;20097;-92
2022/05/16 05:43:42;;;;;;;;;;;;;;;;;;;;;
2022/05/16 05:46:16;;;;;;;29.70;7.20;;;;;;;-144.47;46.03;53185.81;5044468;28;20096;-90
2022/05/16 05:48:46;;;;;;;68.45;12.85;;;;;;;-144.47;46.00;53223.56;5035658;28;20093;-91
2022/05/16 05:51:27;;;;;;;38.80;8.25;;;;;;;-144.47;46.19;53179.84;5012780;28;20057;-87
2022/05/16 05:54:15;;;;;;;14.68;5.18;;;;;;;-144.47;45.88;53225.53;5047123;28;20041;-92
2022/05/16 05:56:41;;;;;;;14.85;5.75;;;;;;;-144.47;45.98;53203.69;5050483;28;20054;-93
2022/05/16 05:59:14;;;;;;;21.45;4.45;;;;;;;-144.47;45.82;53173.88;5033716;28;20034;-90
2022/05/16 06:01:50;;;;;;;29.08;6.57;;;;;;;-144.47;45.68;53195.75;5037191;28;20069;-90
2022/05/16 06:04:51;;;;;;;37.30;7.75;;;;;;;-144.47;45.43;53205.66;5037372;28;20037;-89
2022/05/16 06:07:24;;;;;;;32.17;6.30;;;;;;;-144.47;45.21;53187.78;5003493;28;20042;-90
2022/05/16 06:09:56;;;;;;;27.75;7.05;;;;;;;-144.47;44.85;53199.72;5018106;28;20033;-90
2022/05/16 06:16:02;;;;;;;;;;;;;;;;;;;;;
2022/05/16 06:18:36;;;;;;;26.65;5.40;;;;;;;-144.47;44.31;53173.88;5046529;28;20082;-90
2022/05/16 06:21:28;;;;;;;27.75;6.53;;;;;;;-144.47;44.36;53205.66;5033479;28;20048;-91
2022/05/16 06:24:04;;;;;;;40.80;7.00;;;;;;;-144.47;44.10;53148.06;5032545;28;20159;-91
2022/05/16 06:26:29;;;;;;;31.38;5.63;;;;;;;-144.47;44.08;53177.88;5043484;22;20029;-69
2022/05/16 06:28:55;;;;;;;19.10;5.28;;;;;;;-144.47;43.71;53193.75;4993488;28;20030;-68
2022/05/16 06:31:21;;;;;;;29.20;5.57;;;;;;;-144.47;43.74;53183.81;4991717;28;20100;-67
2022/05/16 06:33:47;;;;;;;16.42;5.03;;;;;;;-144.47;43.71;53179.84;4973289;28;20030;-71
2022/05/16 06:36:13;;;;;;;28.27;6.00;;;;;;;-144.47;43.74;53171.91;4965245;28;20027;-69
2022/05/16 06:38:39;;;;;;;26.10;6.30;;;;;;;-144.47;43.59;53163.97;4964083;28;20027;-71
2022/05/16 06:41:04;;;;;;;39.88;6.75;;;;;;;-144.47;43.64;53183.81;4968960;28;20042;-67
2022/05/16 06:43:31;;;;;;;30.48;6.30;;;;;;;-144.47;43.56;53154.03;4972963;28;20129;-69
2022/05/16 06:45:57;;;;;;;19.42;5.45;;;;;;;-144.47;43.78;53171.91;4968467;28;20857;-68
2022/05/16 06:48:22;;;;;;;32.28;5.70;;;;;;;-144.47;43.89;53191.78;4959304;28;20031;-69
2022/05/16 06:50:49;;;;;;;19.33;5.45;;;;;;;-144.47;43.76;53193.75;4952316;28;20137;-69
2022/05/16 06:53:27;;;;;;;22.10;5.47;;;;;;;-144.47;43.36;53197.72;4955521;28;20027;-69
2022/05/16 06:55:53;;;;;;;21.27;4.72;;;;;;;-144.47;43.17;53108.34;4955190;28;20027;-66
2022/05/16 06:58:18;;;;;;;17.80;5.40;;;;;;;-144.47;43.03;53169.91;4953987;28;20054;-70
2022/05/16 07:00:44;;;;;;;23.33;4.97;;;;;;;-144.47;42.79;53181.84;4949752;28;20110;-69
2022/05/16 07:03:09;;;;;;;21.25;4.95;;;;;;;-144.47;42.68;53130.19;4959958;28;20482;-68
2022/05/16 07:05:35;;;;;;;26.08;6.07;;;;;;;-144.47;42.85;53161.97;4958519;28;20062;-69
2022/05/16 07:08:00;;;;;;;20.02;4.22;;;;;;;-144.47;42.57;53177.88;4957619;28;20458;-69
2022/05/16 07:10:26;;;;;;;16.58;4.05;;;;;;;-144.47;42.10;53177.88;4958562;28;20089;-69
2022/05/16 07:12:52;;;;;;;28.02;5.40;;;;;;;-144.47;42.15;53165.94;4952861;28;20454;-68
2022/05/16 07:15:19;;;;;;;31.02;5.55;;;;;;;-144.47;42.14;53175.88;4960080;28;20497;-70
2022/05/16 07:17:45;;;;;;;23.58;5.10;;;;;;;-144.47;42.04;53148.06;4959323;28;20106;-68
2022/05/16 07:20:10;;;;;;;22.73;4.80;;;;;;;-144.47;41.97;53140.13;4957330;28;20117;-70
2022/05/16 07:22:40;;;;;;;45.33;4.88;;;;;;;-144.47;41.59;53154.03;4952689;28;20553;-69
2022/05/16 07:25:06;;;;;;;16.98;3.88;;;;;;;-144.47;41.45;53165.94;4954121;28;20035;-70
2022/05/16 07:30:15;;;;;;;23.88;4.85;;;;;;;-144.47;41.24;53179.84;4957851;28;20037;-70
2022/05/16 07:32:45;;;;;;;29.15;5.72;;;;;;;-144.47;40.98;53136.16;4955303;28;20034;-70
2022/05/16 07:35:13;;;;;;;31.13;5.78;;;;;;;-144.47;41.19;53134.16;4953277;28;20597;-69
2022/05/16 07:37:39;;;;;;;19.65;4.93;;;;;;;-144.47;40.91;53128.22;4958203;28;20114;-70
2022/05/16 07:40:07;;;;;;;18.85;4.68;;;;;;;-144.47;40.54;53114.31;4957614;28;20185;-69
2022/05/16 07:42:33;;;;;;;18.48;4.25;;;;;;;-144.47;40.83;53108.34;4955554;28;20434;-69
2022/05/16 07:44:59;;;;;;;19.90;5.32;;;;;;;-144.47;40.48;53132.19;4956100;28;20194;-69
2022/05/16 07:47:24;;;;;;;15.80;5.03;;;;;;;-144.47;40.26;53167.94;4960135;28;20110;-68
2022/05/16 07:49:49;;;;;;;18.45;4.88;;;;;;;-144.47;40.21;53122.25;4954163;28;20042;-69
2022/05/16 07:52:15;;;;;;;32.40;5.28;;;;;;;-144.47;39.91;53134.16;4953536;28;20222;-67
2022/05/16 07:54:40;;;;;;;13.35;3.83;;;;;;;-144.47;40.48;53118.28;4972357;28;20648;-68
2022/05/16 07:57:05;;;;;;;27.98;4.45;;;;;;;-144.47;39.91;53142.09;4956160;28;20038;-67
2022/05/16 07:59:30;;;;;;;19.60;4.72;;;;;;;-144.47;39.76;53096.41;4954683;28;20039;-69
2022/05/16 08:01:56;;;;;;;18.75;4.15;;;;;;;-144.47;39.16;53096.41;4954050;28;20115;-70
2022/05/16 08:04:22;;;;;;;27.25;5.15;;;;;;;-144.47;39.59;53106.34;4957546;28;20022;-69
2022/05/16 08:06:48;;;;;;;24.45;4.93;;;;;;;-144.47;39.43;53122.25;4954291;28;20081;-69
2022/05/16 08:11:57;;;;;;;17.17;4.10;;;;;;;-144.47;39.19;53150.06;4951526;28;20089;-69
2022/05/16 08:14:23;;;;;;;23.42;4.35;;;;;;;-144.47;39.41;53140.13;4956896;28;20031;-68
2022/05/16 08:16:48;;;;;;;25.33;4.82;;;;;;;-144.47;39.21;53130.19;4956203;28;20431;-69
2022/05/16 08:19:14;;;;;;;24.42;4.97;;;;;;;-144.47;38.94;53108.34;4955920;28;20026;-67
2022/05/16 08:21:41;;;;;;;32.80;7.22;;;;;;;-144.47;38.61;53110.31;4950066;28;20573;-67
2022/05/16 08:24:09;;;;;;;17.42;4.55;;;;;;;-144.47;38.39;53140.13;4959310;28;20038;-70
2022/05/16 08:26:35;;;;;;;18.00;4.63;;;;;;;-144.47;38.63;53144.09;4957297;28;20034;-68
2022/05/16 08:29:00;;;;;;;25.45;4.63;;;;;;;-144.47;38.50;53104.38;4951195;28;20027;-70
2022/05/16 08:31:28;;;;;;;31.55;5.13;;;;;;;-144.47;38.31;53156.00;4953485;28;20132;-67
2022/05/16 08:33:54;;;;;;;14.63;4.75;;;;;;;-144.47;37.57;53104.38;4952717;28;20034;-69
2022/05/16 08:41:52;;;;;;;23.65;5.85;;;;;;;-144.47;37.82;53122.25;4950494;28;20144;-68
2022/05/16 08:44:36;;;;;;;24.52;4.97;;;;;;;-144.47;37.50;53140.13;4958676;28;20035;-72
2022/05/16 08:47:19;;;;;;;30.38;4.55;;;;;;;-144.47;36.72;53122.25;4959505;28;20077;-68
2022/05/16 08:49:51;;;;;;;36.75;6.90;;;;;;;-144.47;36.71;53102.38;4953677;28;20441;-68
2022/05/16 08:52:19;;;;;;;40.72;5.45;;;;;;;-144.47;37.28;53110.31;4952892;28;20038;-68
2022/05/16 08:54:53;;;;;;;15.57;4.70;;;;;;;-144.47;37.11;53070.59;4956709;28;20019;-70
2022/05/16 08:57:40;;;;;;;26.55;4.78;;;;;;;-144.47;36.73;53098.41;4953196;28;20506;-66
2022/05/16 09:00:14;;;;;;;25.73;5.45;;;;;;;-144.47;36.64;53080.53;4954840;28;20122;-67
2022/05/16 09:02:43;;;;;;;25.38;5.85;;;;;;;-144.47;36.78;53086.50;4951402;28;20026;-68
2022/05/16 09:05:24;;;;;;;21.75;4.47;;;;;;;-144.47;36.86;53098.41;4952581;28;20066;-67
2022/05/16 09:07:52;;;;;;;25.02;5.03;;;;;;;-144.47;36.78;53104.38;4954948;28;20636;-68
2022/05/16 09:10:20;;;;;;;28.75;5.18;;;;;;;-144.47;36.36;53082.53;4956699;28;20041;-70
2022/05/16 09:13:13;;;;;;;15.30;4.20;;;;;;;-144.47;36.37;53088.47;4951330;28;20034;-71
2022/05/16 09:15:51;;;;;;;27.75;5.32;;;;;;;-144.47;36.11;53092.44;4953688;28;20534;-68
2022/05/16 09:18:36;;;;;;;15.93;4.93;;;;;;;-144.47;36.22;53070.59;4953077;28;20031;-70
2022/05/16 09:21:22;;;;;;;23.20;5.53;;;;;;;-144.47;35.97;53090.47;4957079;28;20042;-69
2022/05/16 09:23:58;;;;;;;22.20;4.57;;;;;;;-144.47;36.74;53080.53;4955148;28;20027;-68
2022/05/16 09:26:42;;;;;;;16.77;5.43;;;;;;;-144.47;35.98;53074.56;4958248;28;20043;-68
2022/05/16 09:29:10;;;;;;;27.15;5.28;;;;;;;-144.47;36.29;53100.41;4956974;28;20023;-70
2022/05/16 09:31:40;;;;;;;18.08;4.40;;;;;;;-144.47;35.63;53060.66;4959643;28;20607;-68
2022/05/16 09:34:07;;;;;;;24.13;4.68;;;;;;;-144.47;35.61;53110.31;4959604;28;20363;-70
2022/05/16 09:36:32;;;;;;;18.08;4.03;;;;;;;-144.47;35.58;53058.69;4957388;28;20018;-67
2022/05/16 09:38:57;;;;;;;19.93;4.33;;;;;;;-144.47;35.31;53100.41;4957212;28;20027;-69
2022/05/16 09:41:35;;;;;;;17.90;4.10;;;;;;;-144.47;35.32;53072.59;4959056;28;20321;-69
2022/05/16 09:44:05;;;;;;;18.75;4.32;;;;;;;-144.47;35.26;53104.38;4962377;28;20043;-70
2022/05/16 09:46:41;;;;;;;16.73;4.60;;;;;;;-144.47;34.91;53098.41;4959688;28;20545;-68
2022/05/16 09:49:19;;;;;;;24.38;5.05;;;;;;;-144.47;34.82;53082.53;4954328;28;20068;-66
2022/05/16 09:51:57;;;;;;;25.55;5.15;;;;;;;-144.47;34.88;53116.28;4955696;28;20046;-69
2022/05/16 09:54:31;;;;;;;27.50;4.23;;;;;;;-144.47;35.11;53098.41;4959223;28;20050;-68
2022/05/16 09:57:18;;;;;;;18.65;4.40;;;;;;;-144.47;34.83;53050.75;4959566;28;20087;-67
2022/05/16 10:00:13;;;;;;;31.20;6.50;;;;;;;-144.47;34.49;53088.47;4958557;28;20031;-68
2022/05/16 10:02:39;;;;;;;32.20;5.32;;;;;;;-144.47;34.34;53052.72;4955801;28;20041;-69
2022/05/16 10:05:19;;;;;;;22.83;5.38;;;;;;;-144.47;33.97;53070.59;4957548;28;20038;-67
2022/05/16 10:07:51;;;;;;;18.73;4.20;;;;;;;-144.47;34.03;53066.63;4956490;28;20019;-69
2022/05/16 10:10:32;;;;;;;12.50;4.43;;;;;;;-144.47;34.22;53094.44;4959321;28;20026;-70
2022/05/16 10:12:57;;;;;;;24.05;5.53;;;;;;;-144.47;34.19;53044.78;4953846;28;20031;-68
2022/05/16 10:15:23;;;;;;;21.52;4.80;;;;;;;-144.47;33.89;53058.69;4957688;28;21262;-69
2022/05/16 10:17:52;;;;;;;18.85;4.93;;;;;;;-144.47;34.18;53082.53;4955952;28;20027;-68
2022/05/16 10:20:25;;;;;;;23.77;4.85;;;;;;;-144.47;33.89;53086.50;4959346;28;20023;-68
2022/05/16 10:22:56;;;;;;;23.73;4.93;;;;;;;-144.47;33.13;53042.78;4958307;28;20030;-66
2022/05/16 10:25:36;;;;;;;17.50;5.40;;;;;;;-144.47;33.20;53042.78;4956903;28;20031;-68
2022/05/16 10:28:05;;;;;;;22.42;4.97;;;;;;;-144.47;32.93;53066.63;4952377;28;20058;-68
2022/05/16 10:33:24;;;;;;;23.08;4.68;;;;;;;-144.47;32.75;53072.59;4955022;28;20035;-68
2022/05/16 10:33:26;;;;;;;22.60;5.05;;;;;;;-144.47;32.45;53064.66;4952119;28;20694;-66
2022/05/16 10:36:06;;;;;;;31.02;5.25;;;;;;;-144.47;32.71;53084.50;4959107;28;21263;-69
2022/05/16 10:39:04;;;;;;;24.00;5.90;;;;;;;-144.47;32.43;53038.81;4961241;28;20035;-70
2022/05/16 10:41:57;;;;;;;31.45;6.13;;;;;;;-144.47;32.56;53003.06;4954366;28;20043;-70
2022/05/16 10:44:59;;;;;;;27.15;4.80;;;;;;;-144.47;33.05;53030.88;4958829;28;20092;-67
2022/05/16 10:47:39;;;;;;;23.42;5.22;;;;;;;-144.47;32.52;53030.88;4957964;28;20038;-69
2022/05/16 10:50:28;;;;;;;23.85;7.53;;;;;;;-144.47;32.50;53036.84;4957815;28;20023;-67
2022/05/16 10:53:10;;;;;;;32.30;5.93;;;;;;;-144.47;32.35;53076.56;4951053;28;20060;-69
2022/05/16 10:55:52;;;;;;;22.25;5.80;;;;;;;-144.47;32.57;53015.00;4955736;28;20217;-72
2022/05/16 10:58:31;;;;;;;19.67;5.22;;;;;;;-144.47;32.39;53038.81;4957012;28;20537;-70
2022/05/16 11:01:11;;;;;;;18.55;5.07;;;;;;;-144.47;32.40;53030.88;4956269;28;20495;-69
2022/05/16 11:04:08;;;;;;;33.03;5.05;;;;;;;-144.47;32.42;53052.72;4955226;28;20022;-69
2022/05/16 11:07:16;;;;;;;29.70;5.63;;;;;;;-144.47;32.00;53015.00;4957496;28;20082;-66
2022/05/16 11:09:41;;;;;;;21.55;4.80;;;;;;;-144.47;31.85;53044.78;4955665;28;20074;-69
2022/05/16 11:12:41;;;;;;;18.73;4.83;;;;;;;-144.47;31.99;53022.94;4956624;28;20504;-68
2022/05/16 11:15:25;;;;;;;28.83;5.35;;;;;;;-144.47;31.48;53036.84;4950897;28;20281;-69
2022/05/16 11:18:00;;;;;;;23.92;5.57;;;;;;;-144.47;30.24;52977.25;4953596;28;20146;-70
2022/05/16 11:20:42;;;;;;;24.90;6.65;;;;;;;-144.47;30.09;52977.25;4953879;28;20447;-68
2022/05/16 11:23:44;;;;;;;31.15;6.82;;;;;;;-144.47;29.95;52969.31;4955409;28;20501;-69
2022/05/16 11:26:21;;;;;;;17.13;5.25;;;;;;;-144.47;29.84;53020.94;4953007;28;20509;-67
2022/05/16 11:29:17;;;;;;;27.13;8.70;;;;;;;-144.47;30.14;53013.00;4955194;28;20054;-69
2022/05/16 11:31:52;;;;;;;33.58;6.13;;;;;;;-144.47;30.20;53003.06;4968884;28;20167;-68
2022/05/16 11:34:29;;;;;;;27.60;6.22;;;;;;;-144.47;29.90;52983.22;4955290;28;20502;-68
2022/05/16 11:37:13;;;;;;;24.47;8.43;;;;;;;-144.47;29.84;53032.88;4962689;28;20041;-69
2022/05/16 11:39:52;;;;;;;27.35;6.20;;;;;;;-144.47;29.45;52991.16;4956877;28;20630;-68
2022/05/16 11:42:35;;;;;;;24.55;6.85;;;;;;;-144.47;29.58;52967.31;4957217;28;20039;-67
2022/05/16 11:45:18;;;;;;;33.17;8.05;;;;;;;-144.47;29.35;53028.88;4958990;28;20039;-71
2022/05/16 11:48:14;;;;;;;23.13;8.35;;;;;;;-144.47;29.10;52953.41;4951892;28;20391;-70
2022/05/16 11:51:03;;;;;;;26.95;5.95;;;;;;;-144.47;29.19;52993.13;4950936;28;20487;-69
2022/05/16 11:53:50;;;;;;;23.90;6.18;;;;;;;-144.47;29.29;52991.16;4957534;28;20593;-68
2022/05/16 12:02:34;;;;;;;30.90;5.70;;;;;;;-144.47;29.20;52999.09;4952763;28;20113;-70
2022/05/16 12:05:30;;;;;;;29.05;6.07;;;;;;;-144.47;29.00;53003.06;4953282;28;20122;-69
2022/05/16 12:08:14;;;;;;;24.00;5.75;;;;;;;-144.47;28.97;53011.00;4954385;28;20124;-69
2022/05/16 12:11:02;;;;;;;41.75;8.40;;;;;;;-144.47;29.02;53007.03;4953756;28;20057;-70
2022/05/16 12:13:38;;;;;;;33.70;7.05;;;;;;;-144.47;29.27;52977.25;4958036;28;20149;-70
2022/05/16 12:16:18;;;;;;;24.75;6.82;;;;;;;-144.47;29.02;52967.31;4954401;28;20179;-67
2022/05/16 12:19:08;;;;;;;16.67;6.10;;;;;;;-144.47;28.68;52999.09;4955745;28;20102;-69